Time;durP1;ratioP1;P1;durP2;ratioP2;P2;SDS_P1;SDS_P2;PMS_P1;PMS_P2;Temp;Humidity;BMP_temperature;BMP_pressure;BME280_temperature;BME280_humidity;BME280_pressure;Samples;Min_cycle;Max_cycle;Signal;HPM_P1;HPM_P2
2022/05/30 00:01:15;;;;;;;12.40;6.90;;;;;;;14.69;96.63;93958.25;5053295;28;20206;-81
2022/05/30 00:03:42;;;;;;;13.38;6.88;;;;;;;14.66;96.94;93959.75;5053320;28;20238;-80
2022/05/30 00:06:12;;;;;;;13.48;6.05;;;;;;;14.55;97.55;93975.19;5053767;28;20204;-80
2022/05/30 00:08:39;;;;;;;15.63;5.78;;;;;;;14.52;97.90;93967.75;5053242;28;20226;-79
2022/05/30 00:11:08;;;;;;;9.98;6.30;;;;;;;14.39;98.36;93972.59;5053024;28;20224;-79
2022/05/30 00:13:36;;;;;;;8.85;4.60;;;;;;;14.28;98.67;93974.38;5052716;28;20240;-80
2022/05/30 00:16:05;;;;;;;9.70;4.88;;;;;;;14.27;99.12;93970.09;5053433;28;20208;-79
2022/05/30 00:18:31;;;;;;;9.43;5.22;;;;;;;14.18;99.60;93983.97;5053393;28;20210;-80
2022/05/30 00:20:58;;;;;;;8.25;4.15;;;;;;;14.17;99.56;93982.41;5052911;28;20227;-80
2022/05/30 00:23:26;;;;;;;10.32;3.75;;;;;;;14.22;99.23;93973.09;5053555;28;20203;-80
2022/05/30 00:25:53;;;;;;;8.80;4.30;;;;;;;14.14;98.07;93988.56;5053231;28;20219;-80
2022/05/30 00:28:21;;;;;;;6.13;3.15;;;;;;;14.18;98.28;93989.41;5053589;28;20212;-80
2022/05/30 00:30:49;;;;;;;6.78;3.17;;;;;;;14.15;98.12;93979.25;5052931;28;20361;-80
2022/05/30 00:33:17;;;;;;;5.95;3.85;;;;;;;14.16;97.88;93975.38;5053044;28;20228;-80
2022/05/30 00:35:44;;;;;;;7.55;3.85;;;;;;;14.24;97.52;93968.88;5039949;28;20228;-81
2022/05/30 00:38:11;;;;;;;6.10;3.95;;;;;;;14.35;96.85;93971.00;5052830;28;20228;-81
2022/05/30 00:40:40;;;;;;;7.82;3.85;;;;;;;14.35;97.35;93977.19;5053085;28;20228;-81
2022/05/30 00:43:22;;;;;;;7.20;3.85;;;;;;;14.28;97.49;93979.03;5053769;28;20718;-81
2022/05/30 00:45:50;;;;;;;7.10;4.20;;;;;;;14.19;96.99;93976.59;5061275;28;20207;-81
2022/05/30 00:48:19;;;;;;;6.72;4.07;;;;;;;14.32;97.55;93988.06;5052065;28;20877;-81
2022/05/30 00:50:49;;;;;;;9.23;3.75;;;;;;;14.33;97.16;93989.63;5052914;28;20219;-81
2022/05/30 00:53:16;;;;;;;7.28;4.03;;;;;;;14.35;97.35;93981.88;5052531;28;20212;-81
2022/05/30 00:55:44;;;;;;;8.48;5.10;;;;;;;14.35;97.09;93984.63;5051939;28;20204;-81
2022/05/30 00:58:14;;;;;;;7.28;3.90;;;;;;;14.40;97.00;93984.31;5051072;28;20228;-81
2022/05/30 01:00:40;;;;;;;8.27;4.60;;;;;;;14.47;97.02;93987.94;5051147;28;20578;-81
2022/05/30 01:08:37;;;;;;;6.82;3.53;;;;;;;14.42;96.24;93987.47;5057594;28;20230;-80
2022/05/30 01:11:05;;;;;;;5.80;3.92;;;;;;;14.42;96.03;93982.81;5052220;28;20214;-80
2022/05/30 01:13:32;;;;;;;7.63;3.80;;;;;;;14.49;95.27;93988.34;5051697;28;20258;-80
2022/05/30 01:15:58;;;;;;;7.82;4.07;;;;;;;14.28;95.37;93987.22;5050985;28;20203;-80
2022/05/30 01:18:33;;;;;;;9.10;4.72;;;;;;;14.23;95.47;93983.66;5051839;28;20253;-81
2022/05/30 01:21:12;;;;;;;6.97;3.58;;;;;;;14.33;94.76;93979.53;5051812;28;20306;-80
2022/05/30 01:23:53;;;;;;;8.50;3.53;;;;;;;14.20;94.79;93987.13;5052116;28;20227;-81
2022/05/30 01:26:44;;;;;;;8.23;3.63;;;;;;;13.98;95.66;93998.81;5051032;28;20199;-81
2022/05/30 01:29:16;;;;;;;6.10;3.38;;;;;;;13.92;96.33;93994.06;5038007;28;20586;-81
2022/05/30 01:31:43;;;;;;;7.43;3.53;;;;;;;13.81;97.67;93996.56;5051604;28;20720;-80
2022/05/30 01:34:10;;;;;;;7.70;3.90;;;;;;;13.73;98.65;93995.69;5051739;28;20582;-80
2022/05/30 01:36:37;;;;;;;6.43;3.15;;;;;;;13.56;98.94;93996.13;5051731;28;20500;-81
2022/05/30 01:39:05;;;;;;;4.30;3.33;;;;;;;13.51;99.14;93993.75;5051525;28;20357;-80
2022/05/30 01:41:32;;;;;;;4.95;2.88;;;;;;;13.47;99.45;94004.53;5051198;28;20235;-80
2022/05/30 01:43:59;;;;;;;6.63;3.75;;;;;;;13.38;99.36;93995.84;5060285;28;20191;-79
2022/05/30 01:46:28;;;;;;;5.32;3.15;;;;;;;13.39;99.28;93991.94;5054846;28;20228;-81
2022/05/30 01:48:55;;;;;;;5.88;3.35;;;;;;;13.41;99.01;93988.88;5051646;28;20206;-81
2022/05/30 01:51:23;;;;;;;6.45;3.60;;;;;;;13.35;99.17;94010.16;5051531;28;20204;-80
2022/05/30 01:53:50;;;;;;;7.28;3.72;;;;;;;13.26;99.79;94003.34;5051650;28;20204;-81
2022/05/30 01:56:17;;;;;;;5.93;3.00;;;;;;;13.28;99.55;94007.28;5051300;28;20207;-81
2022/05/30 01:58:44;;;;;;;8.57;4.05;;;;;;;13.44;99.30;94009.91;5051496;28;20732;-80
2022/05/30 02:01:16;;;;;;;5.30;3.15;;;;;;;13.44;98.97;93994.38;5050842;28;20725;-80
2022/05/30 02:03:44;;;;;;;9.52;3.80;;;;;;;13.43;98.68;93992.81;5051040;28;20833;-81
2022/05/30 02:06:11;;;;;;;7.03;3.50;;;;;;;13.49;98.41;93991.38;5051354;28;20220;-81
2022/05/30 02:08:38;;;;;;;4.72;3.00;;;;;;;13.41;98.68;94000.53;5051201;28;20228;-81
2022/05/30 02:11:08;;;;;;;6.13;3.25;;;;;;;13.43;98.68;94014.56;5051479;28;20203;-81
2022/05/30 02:13:35;;;;;;;5.38;3.15;;;;;;;13.44;98.57;94007.97;5051310;28;20236;-80
2022/05/30 02:18:49;;;;;;;6.45;3.63;;;;;;;13.20;99.39;94021.91;5051107;28;20716;-80
2022/05/30 02:21:16;;;;;;;6.20;3.58;;;;;;;13.30;99.78;94018.59;5051534;28;20226;-82
2022/05/30 02:23:42;;;;;;;8.55;3.40;;;;;;;13.26;99.15;94025.88;5051041;28;20234;-82
2022/05/30 02:26:10;;;;;;;8.05;3.50;;;;;;;13.32;99.14;94027.19;5050939;28;20266;-81
2022/05/30 02:28:37;;;;;;;9.80;3.15;;;;;;;13.29;98.64;94030.63;5051329;28;20254;-80
2022/05/30 02:31:04;;;;;;;7.45;3.70;;;;;;;13.49;99.07;94021.31;5050666;28;20230;-80
2022/05/30 02:39:01;;;;;;;6.47;3.33;;;;;;;13.48;97.96;94038.78;5039531;28;20217;-81
2022/05/30 02:41:28;;;;;;;9.40;3.60;;;;;;;13.46;97.97;94041.06;5051576;28;20234;-80
2022/05/30 02:43:55;;;;;;;7.25;3.20;;;;;;;13.58;97.15;94031.16;5059682;28;20218;-81
2022/05/30 02:46:22;;;;;;;6.18;3.30;;;;;;;13.58;96.76;94023.78;5055232;28;20717;-81
2022/05/30 02:48:49;;;;;;;6.68;4.07;;;;;;;13.60;96.39;94037.03;5051258;28;20215;-80
2022/05/30 02:51:17;;;;;;;7.32;3.33;;;;;;;13.61;96.45;94044.84;5050519;28;20204;-81
2022/05/30 02:53:44;;;;;;;6.25;3.55;;;;;;;13.65;95.95;94036.75;5051131;28;20204;-81
2022/05/30 02:56:12;;;;;;;6.60;3.75;;;;;;;13.62;94.74;94040.19;5053537;28;20254;-81
2022/05/30 02:58:39;;;;;;;7.88;3.58;;;;;;;13.37;95.04;94048.66;5054896;28;20227;-81
2022/05/30 03:01:06;;;;;;;7.72;3.97;;;;;;;13.30;97.20;94056.69;5054754;28;20246;-81
2022/05/30 03:03:33;;;;;;;8.35;3.63;;;;;;;13.15;97.45;94058.31;5054794;28;20236;-81
2022/05/30 03:06:00;;;;;;;10.70;3.65;;;;;;;13.18;98.44;94056.03;5053993;28;20274;-81
2022/05/30 03:08:28;;;;;;;7.30;3.60;;;;;;;13.21;98.66;94067.00;5055140;28;20218;-81
2022/05/30 03:10:55;;;;;;;6.80;3.60;;;;;;;13.34;98.42;94071.13;5054769;28;20291;-80
2022/05/30 03:13:22;;;;;;;10.90;3.55;;;;;;;13.47;98.11;94078.00;5054725;28;20228;-80
2022/05/30 03:15:49;;;;;;;6.93;3.70;;;;;;;13.48;97.88;94087.75;5054025;28;20203;-80
2022/05/30 03:18:16;;;;;;;6.13;3.20;;;;;;;13.80;97.26;94093.78;5062197;28;20231;-81
2022/05/30 03:20:42;;;;;;;8.27;4.05;;;;;;;14.09;96.27;94094.31;5069843;28;20207;-80
2022/05/30 03:23:10;;;;;;;5.47;3.50;;;;;;;14.06;94.76;94095.84;5055371;28;20224;-80
2022/05/30 03:25:38;;;;;;;7.40;3.55;;;;;;;14.17;93.89;94101.47;5054485;28;20204;-81
2022/05/30 03:28:05;;;;;;;9.13;5.78;;;;;;;14.23;93.09;94102.72;5054633;28;20207;-81
2022/05/30 03:30:36;;;;;;;9.02;4.05;;;;;;;14.27;92.57;94105.50;5053956;28;20261;-81
2022/05/30 03:33:04;;;;;;;8.98;3.70;;;;;;;14.47;91.23;94115.25;5054033;28;20346;-81
2022/05/30 03:35:31;;;;;;;6.97;3.25;;;;;;;14.59;91.16;94112.31;5053347;28;20243;-81
2022/05/30 03:37:57;;;;;;;6.68;3.35;;;;;;;15.05;89.68;94128.56;5053047;28;20598;-81
2022/05/30 03:40:25;;;;;;;8.20;4.25;;;;;;;15.62;86.30;94130.94;5053040;28;20204;-81
2022/05/30 03:42:53;;;;;;;12.73;4.93;;;;;;;16.78;83.51;94126.31;5053742;28;20598;-81
2022/05/30 03:45:20;;;;;;;7.75;4.47;;;;;;;17.59;78.70;94126.81;5053764;28;20216;-81
2022/05/30 03:47:48;;;;;;;7.32;4.15;;;;;;;18.23;76.78;94129.03;5053737;28;20216;-79
2022/05/30 03:50:18;;;;;;;7.70;3.85;;;;;;;18.40;74.09;94126.34;5039696;28;20211;-80
2022/05/30 03:52:44;;;;;;;7.63;3.42;;;;;;;18.68;70.28;94138.53;5053333;28;20721;-80
2022/05/30 03:55:14;;;;;;;5.22;2.92;;;;;;;18.11;72.86;94143.88;5053935;28;20207;-81
2022/05/30 03:57:42;;;;;;;5.82;2.80;;;;;;;17.09;73.45;94138.63;5053469;28;20231;-80
2022/05/30 04:00:15;;;;;;;5.03;2.78;;;;;;;16.42;76.27;94144.31;5053592;28;20210;-81
2022/05/30 04:02:42;;;;;;;5.13;2.67;;;;;;;16.44;76.37;94152.91;5053551;28;20233;-80
2022/05/30 04:05:09;;;;;;;6.30;4.05;;;;;;;16.14;77.87;94158.47;5052854;28;20625;-79
2022/05/30 04:07:36;;;;;;;7.15;4.22;;;;;;;16.82;76.24;94152.50;5052592;28;20626;-79
2022/05/30 04:10:04;;;;;;;6.05;2.85;;;;;;;17.24;76.67;94157.50;5053555;28;20204;-77
2022/05/30 04:12:33;;;;;;;7.32;4.03;;;;;;;17.84;73.35;94156.31;5053052;28;20231;-79
2022/05/30 04:15:02;;;;;;;8.20;4.18;;;;;;;17.51;73.60;94158.06;5052704;28;20431;-78
2022/05/30 04:17:33;;;;;;;4.80;3.60;;;;;;;18.03;73.69;94158.75;5053062;28;20303;-77
2022/05/30 04:20:01;;;;;;;4.60;3.05;;;;;;;18.71;70.57;94156.97;5053258;28;20231;-78
2022/05/30 04:22:27;;;;;;;8.65;3.88;;;;;;;18.95;68.82;94158.94;5052594;28;20211;-78
2022/05/30 04:24:57;;;;;;;6.57;2.63;;;;;;;19.36;70.76;94158.53;5046049;28;20250;-78
2022/05/30 04:27:24;;;;;;;6.00;2.72;;;;;;;20.89;64.23;94153.19;5050907;28;20270;-78
2022/05/30 04:29:51;;;;;;;6.68;2.78;;;;;;;21.54;61.82;94154.22;5041032;28;20224;-79
2022/05/30 04:32:18;;;;;;;5.63;2.55;;;;;;;20.83;61.68;94157.56;5039644;28;20192;-77
2022/05/30 04:34:46;;;;;;;10.65;3.20;;;;;;;20.23;62.19;94167.69;5053124;28;20256;-75
2022/05/30 04:37:14;;;;;;;5.95;4.13;;;;;;;20.30;62.98;94158.63;5051399;28;20219;-77
2022/05/30 04:39:41;;;;;;;9.85;4.38;;;;;;;21.35;59.53;94143.78;5042991;28;20231;-77
2022/05/30 04:42:08;;;;;;;8.70;4.00;;;;;;;22.77;56.71;94139.38;5044244;28;20223;-78
2022/05/30 04:44:36;;;;;;;4.93;3.97;;;;;;;23.70;54.43;94147.72;5042722;28;20600;-78
2022/05/30 04:47:03;;;;;;;4.18;3.63;;;;;;;24.94;49.86;94138.84;5045036;28;20727;-78
2022/05/30 04:49:30;;;;;;;7.45;4.38;;;;;;;25.30;48.97;94134.00;5046753;28;20207;-77
2022/05/30 04:52:05;;;;;;;4.88;3.58;;;;;;;26.55;45.82;94142.56;5043909;28;20206;-80
2022/05/30 04:54:32;;;;;;;6.63;4.32;;;;;;;27.55;44.67;94141.03;5052597;28;20608;-78
2022/05/30 04:56:59;;;;;;;7.88;3.95;;;;;;;27.39;44.71;94143.16;5048746;28;20220;-79
2022/05/30 04:59:28;;;;;;;7.70;4.30;;;;;;;26.35;45.14;94151.09;5049516;28;20253;-78
2022/05/30 05:01:55;;;;;;;6.45;3.90;;;;;;;26.37;45.10;94159.00;5052460;28;20230;-76
2022/05/30 05:04:22;;;;;;;6.95;4.13;;;;;;;26.60;44.38;94155.91;5052574;28;20965;-77
2022/05/30 05:06:50;;;;;;;9.43;4.38;;;;;;;26.34;45.13;94162.66;5052248;28;20218;-77
2022/05/30 05:09:36;;;;;;;6.50;4.80;;;;;;;25.96;45.44;94163.25;5052026;28;20302;-79
2022/05/30 05:12:06;;;;;;;6.43;4.40;;;;;;;26.87;45.11;94170.19;5051759;28;20196;-78
2022/05/30 05:14:33;;;;;;;6.20;4.75;;;;;;;25.95;45.48;94172.81;5052622;28;20199;-77
2022/05/30 05:17:01;;;;;;;7.05;4.60;;;;;;;26.88;43.76;94174.53;5052033;28;20584;-78
2022/05/30 05:19:30;;;;;;;12.45;5.78;;;;;;;26.54;44.09;94177.13;5031615;28;20232;-78
2022/05/30 05:21:57;;;;;;;8.07;6.32;;;;;;;26.73;43.88;94181.72;5046046;28;20666;-78
2022/05/30 05:24:26;;;;;;;8.38;5.38;;;;;;;26.70;45.17;94182.59;5051816;28;20280;-78
2022/05/30 05:26:53;;;;;;;8.80;5.40;;;;;;;27.64;42.81;94170.97;5053612;28;20223;-78
2022/05/30 05:29:22;;;;;;;8.80;5.38;;;;;;;29.00;41.75;94164.91;5057820;28;20235;-79
2022/05/30 05:31:49;;;;;;;16.15;5.93;;;;;;;29.28;39.07;94174.19;5051931;28;20220;-78
2022/05/30 05:34:17;;;;;;;8.63;6.47;;;;;;;27.09;43.11;94180.66;5051633;28;20220;-78
2022/05/30 05:36:47;;;;;;;9.10;6.72;;;;;;;28.09;41.03;94176.19;5048298;28;20207;-78
2022/05/30 05:39:15;;;;;;;12.85;7.50;;;;;;;27.14;43.67;94178.13;5040227;28;20330;-79
2022/05/30 05:41:45;;;;;;;11.70;6.95;;;;;;;27.27;43.45;94192.03;5051303;28;20709;-79
2022/05/30 05:44:14;;;;;;;10.88;7.28;;;;;;;28.62;40.51;94181.88;5062360;28;20256;-79
2022/05/30 05:46:41;;;;;;;14.18;7.30;;;;;;;28.54;41.01;94186.16;5053736;28;20290;-78
2022/05/30 05:49:09;;;;;;;10.23;7.45;;;;;;;28.61;40.71;94183.09;5051579;28;20204;-78
2022/05/30 05:51:38;;;;;;;10.93;5.68;;;;;;;28.39;42.19;94190.69;5051218;28;20257;-77
2022/05/30 05:54:06;;;;;;;12.32;7.85;;;;;;;27.31;43.50;94189.91;5052099;28;20227;-79
2022/05/30 05:56:33;;;;;;;9.45;7.82;;;;;;;26.38;45.99;94188.31;5051849;28;20204;-79
2022/05/30 05:59:02;;;;;;;12.13;8.23;;;;;;;26.65;44.91;94194.25;5051094;28;20241;-80
2022/05/30 06:01:31;;;;;;;10.95;7.80;;;;;;;27.61;44.14;94194.13;5051549;28;20223;-79
2022/05/30 06:04:00;;;;;;;11.32;6.72;;;;;;;28.46;41.70;94184.84;5051621;28;20206;-80
2022/05/30 06:06:27;;;;;;;12.73;8.68;;;;;;;27.46;43.24;94193.03;5051526;28;20211;-80
2022/05/30 06:08:56;;;;;;;13.73;9.35;;;;;;;28.81;41.67;94194.72;5050782;28;20539;-79
2022/05/30 06:11:24;;;;;;;13.23;8.52;;;;;;;28.02;42.13;94190.34;5037902;28;20291;-79
2022/05/30 06:13:51;;;;;;;11.60;8.23;;;;;;;27.48;43.64;94202.47;5050953;28;20815;-81
2022/05/30 06:16:22;;;;;;;12.90;8.70;;;;;;;25.54;48.81;94211.50;5051165;28;20736;-81
2022/05/30 06:18:49;;;;;;;15.88;8.20;;;;;;;26.31;45.97;94199.63;5051171;28;20702;-81
2022/05/30 06:21:17;;;;;;;12.68;8.43;;;;;;;24.24;50.80;94222.22;5051268;28;20627;-80
2022/05/30 06:23:46;;;;;;;16.02;9.15;;;;;;;23.35;53.47;94226.50;5051478;28;20539;-81
2022/05/30 06:26:14;;;;;;;11.02;8.50;;;;;;;23.24;53.44;94231.38;5050755;28;20365;-78
2022/05/30 06:28:42;;;;;;;12.15;8.88;;;;;;;21.92;56.62;94238.53;5051034;28;20231;-81
2022/05/30 06:31:11;;;;;;;15.40;8.82;;;;;;;21.81;57.50;94237.84;5055238;28;20226;-80
2022/05/30 06:33:39;;;;;;;16.02;9.18;;;;;;;21.59;59.61;94247.53;5055557;28;20227;-79
2022/05/30 06:36:08;;;;;;;13.90;9.98;;;;;;;20.73;62.03;94257.53;5055296;28;20306;-80
2022/05/30 06:38:35;;;;;;;16.92;10.45;;;;;;;21.89;59.25;94239.34;5050133;28;20235;-76
2022/05/30 06:41:13;;;;;;;15.00;9.90;;;;;;;23.45;55.38;94235.81;5045601;28;20207;-78
2022/05/30 06:43:40;;;;;;;14.02;9.75;;;;;;;23.91;54.91;94235.88;5055220;28;20199;-78
2022/05/30 06:46:07;;;;;;;19.48;10.98;;;;;;;23.83;53.54;94236.38;5054877;28;20211;-79
2022/05/30 06:48:34;;;;;;;17.70;9.80;;;;;;;23.25;54.40;94239.25;5055085;28;20238;-80
2022/05/30 06:51:06;;;;;;;21.63;9.75;;;;;;;22.08;58.00;94248.25;5054653;28;20204;-79
2022/05/30 06:53:33;;;;;;;13.80;9.00;;;;;;;21.52;58.30;94250.31;5035168;28;20227;-80
2022/05/30 06:56:01;;;;;;;15.43;8.40;;;;;;;22.09;57.51;94252.59;5049123;28;20203;-79
2022/05/30 06:58:28;;;;;;;13.05;8.25;;;;;;;21.93;59.30;94251.13;5054428;28;20235;-79
2022/05/30 07:01:01;;;;;;;15.45;9.70;;;;;;;22.39;57.30;94258.16;5054709;28;20223;-79
2022/05/30 07:03:28;;;;;;;12.55;8.98;;;;;;;22.02;57.39;94258.16;5054626;28;20219;-77
2022/05/30 07:05:55;;;;;;;14.20;8.73;;;;;;;22.51;57.45;94246.59;5054610;28;20204;-80
2022/05/30 07:08:23;;;;;;;10.95;8.20;;;;;;;22.72;57.14;94250.25;5054487;28;20200;-80
2022/05/30 07:10:51;;;;;;;13.98;8.63;;;;;;;22.94;56.43;94254.34;5053729;28;20255;-80
2022/05/30 07:13:18;;;;;;;18.15;8.77;;;;;;;24.13;52.78;94243.75;5053561;28;20722;-80
2022/05/30 07:15:48;;;;;;;10.95;7.90;;;;;;;24.80;50.92;94245.22;5054342;28;20226;-80
2022/05/30 07:18:16;;;;;;;11.82;8.15;;;;;;;25.81;49.40;94239.78;5053919;28;20285;-80
2022/05/30 07:20:43;;;;;;;13.77;9.02;;;;;;;26.58;47.00;94230.59;5054362;28;20216;-80
2022/05/30 07:23:10;;;;;;;11.68;7.63;;;;;;;25.29;49.47;94242.59;5053760;28;20211;-80
2022/05/30 07:25:40;;;;;;;10.98;8.50;;;;;;;24.67;51.11;94242.31;5054084;28;20226;-79
2022/05/30 07:28:09;;;;;;;11.73;8.23;;;;;;;24.14;52.70;94243.34;5053138;28;20547;-80
2022/05/30 07:30:36;;;;;;;12.10;8.30;;;;;;;25.42;49.83;94247.00;5053274;28;20269;-79
2022/05/30 07:33:03;;;;;;;14.18;8.98;;;;;;;26.53;46.72;94231.13;5053282;28;20731;-80
2022/05/30 07:35:30;;;;;;;14.15;8.00;;;;;;;28.08;43.79;94230.34;5058762;28;20619;-80
2022/05/30 07:37:57;;;;;;;12.73;8.38;;;;;;;28.89;42.56;94235.06;5060740;28;20625;-80
2022/05/30 07:40:23;;;;;;;13.20;7.75;;;;;;;28.29;44.93;94237.22;5040247;28;20227;-81
2022/05/30 07:42:52;;;;;;;13.45;8.13;;;;;;;26.99;46.85;94243.75;5053257;28;20208;-79
2022/05/30 07:45:19;;;;;;;13.45;9.00;;;;;;;24.46;51.74;94251.06;5073736;28;20634;-79
2022/05/30 07:47:45;;;;;;;11.02;7.93;;;;;;;25.85;50.03;94252.34;5061246;28;20214;-80
2022/05/30 07:50:12;;;;;;;12.95;8.45;;;;;;;27.44;45.91;94235.22;5053821;28;20207;-80
2022/05/30 07:52:39;;;;;;;13.15;8.55;;;;;;;28.15;44.29;94235.69;5053609;28;20220;-79
2022/05/30 07:55:07;;;;;;;11.77;8.65;;;;;;;27.37;44.67;94240.97;5053356;28;20207;-79
2022/05/30 07:57:52;;;;;;;12.43;7.53;;;;;;;26.91;46.42;94236.81;5053477;28;20230;-79
2022/05/30 08:00:23;;;;;;;12.27;7.97;;;;;;;27.45;46.71;94231.19;5032657;28;20706;-79
2022/05/30 08:02:50;;;;;;;11.93;8.55;;;;;;;27.88;46.03;94229.84;5049638;28;20258;-79
2022/05/30 08:05:19;;;;;;;12.77;8.35;;;;;;;27.53;44.65;94246.44;5053600;28;20218;-79
2022/05/30 08:07:47;;;;;;;11.70;8.15;;;;;;;26.56;47.34;94249.72;5053408;28;20219;-81
2022/05/30 08:10:16;;;;;;;11.27;8.07;;;;;;;25.90;48.86;94259.38;5052921;28;20223;-79
2022/05/30 08:12:43;;;;;;;13.95;8.18;;;;;;;26.21;48.65;94251.44;5052616;28;20236;-79
2022/05/30 08:15:11;;;;;;;9.93;7.53;;;;;;;26.87;47.43;94245.25;5052784;28;20220;-78
2022/05/30 08:17:40;;;;;;;13.20;8.52;;;;;;;26.25;50.36;94252.09;5053230;28;20195;-79
2022/05/30 08:20:09;;;;;;;12.23;8.45;;;;;;;26.36;47.58;94249.09;5053061;28;20238;-79
2022/05/30 08:22:37;;;;;;;10.80;7.30;;;;;;;26.96;46.83;94246.63;5053072;28;20224;-79
2022/05/30 08:25:07;;;;;;;12.07;7.95;;;;;;;26.52;48.44;94240.69;5052983;28;20232;-80
2022/05/30 08:27:34;;;;;;;14.20;7.70;;;;;;;27.01;47.32;94241.28;5053072;28;20289;-80
2022/05/30 08:30:01;;;;;;;11.88;7.50;;;;;;;26.52;47.28;94247.03;5052132;28;20228;-79
2022/05/30 08:32:36;;;;;;;11.90;7.82;;;;;;;25.20;49.81;94250.72;5052920;28;20220;-77
2022/05/30 08:35:06;;;;;;;11.75;7.68;;;;;;;24.21;52.67;94253.50;5052527;28;20211;-78
2022/05/30 08:37:34;;;;;;;11.48;8.25;;;;;;;24.29;52.22;94252.19;5052521;28;20290;-79
2022/05/30 08:42:48;;;;;;;11.38;7.80;;;;;;;25.43;48.84;94253.34;5052682;28;20207;-78
2022/05/30 08:45:17;;;;;;;10.40;6.88;;;;;;;26.53;47.27;94248.59;5052173;28;20200;-80
2022/05/30 08:47:51;;;;;;;8.57;6.82;;;;;;;26.48;47.52;94249.16;5052152;28;20207;-77
2022/05/30 08:50:30;;;;;;;9.02;6.55;;;;;;;24.30;50.91;94256.53;5039440;28;20287;-78
2022/05/30 08:53:19;;;;;;;12.20;7.28;;;;;;;23.67;53.56;94253.66;5051494;28;20311;-80
2022/05/30 08:55:51;;;;;;;10.57;6.93;;;;;;;23.88;53.36;94255.28;5052291;28;20231;-77
2022/05/30 08:58:37;;;;;;;9.27;6.65;;;;;;;24.95;50.45;94252.06;5051855;28;20247;-79
2022/05/30 09:01:09;;;;;;;8.20;5.90;;;;;;;25.31;49.70;94252.03;5051676;28;20220;-79
2022/05/30 09:03:39;;;;;;;9.85;6.50;;;;;;;25.10;49.14;94263.63;5051611;28;20204;-78
2022/05/30 09:06:12;;;;;;;8.65;5.53;;;;;;;24.48;50.45;94259.72;5052175;28;20198;-78
2022/05/30 09:08:42;;;;;;;7.40;5.30;;;;;;;24.24;51.50;94258.22;5052186;28;20223;-81
2022/05/30 09:11:21;;;;;;;10.95;6.00;;;;;;;24.17;50.77;94269.41;5051965;28;20210;-80
2022/05/30 09:13:52;;;;;;;7.90;5.93;;;;;;;24.04;51.22;94266.47;5051462;28;20257;-78
2022/05/30 09:16:35;;;;;;;9.07;5.78;;;;;;;23.95;51.04;94264.22;5050801;28;20192;-80
2022/05/30 09:19:05;;;;;;;8.60;5.85;;;;;;;24.63;49.55;94268.53;5051631;28;20234;-79
2022/05/30 09:21:34;;;;;;;10.10;6.53;;;;;;;24.80;51.83;94262.63;5051950;28;20223;-79
2022/05/30 09:24:02;;;;;;;9.18;6.43;;;;;;;24.36;51.15;94265.88;5052241;28;20223;-80
2022/05/30 09:26:33;;;;;;;8.48;5.40;;;;;;;24.92;48.79;94263.19;5051459;28;20541;-80
2022/05/30 09:29:04;;;;;;;8.60;5.88;;;;;;;25.40;49.84;94266.09;5051558;28;20709;-79
2022/05/30 09:31:41;;;;;;;12.68;5.85;;;;;;;25.85;48.00;94268.22;5051770;28;20227;-81
2022/05/30 09:34:31;;;;;;;8.60;5.43;;;;;;;26.52;46.03;94277.59;5039687;28;20191;-79
2022/05/30 09:37:07;;;;;;;8.93;6.30;;;;;;;26.41;48.82;94277.09;5051471;28;20223;-81
2022/05/30 09:39:46;;;;;;;8.02;6.03;;;;;;;24.66;50.18;94279.53;5053436;28;20219;-79
2022/05/30 09:42:29;;;;;;;8.10;6.07;;;;;;;25.20;49.16;94268.13;5046582;28;20204;-80
2022/05/30 09:45:00;;;;;;;9.13;5.97;;;;;;;25.80;46.51;94272.31;5050978;28;20282;-80
2022/05/30 09:47:27;;;;;;;13.10;6.03;;;;;;;26.23;46.82;94259.34;5050487;28;20198;-80
2022/05/30 09:49:55;;;;;;;9.43;6.15;;;;;;;25.17;48.71;94266.22;5051505;28;20564;-77
2022/05/30 09:52:38;;;;;;;10.02;6.90;;;;;;;24.88;50.63;94263.25;5050989;28;20637;-78
2022/05/30 09:55:25;;;;;;;9.05;6.47;;;;;;;24.58;52.82;94267.06;5051001;28;20311;-80
2022/05/30 09:57:53;;;;;;;10.13;6.60;;;;;;;24.29;51.05;94257.72;5050665;28;20528;-79
2022/05/30 10:00:33;;;;;;;11.88;6.80;;;;;;;24.97;52.36;94271.03;5050416;28;20677;-81
2022/05/30 10:03:03;;;;;;;7.60;6.15;;;;;;;24.55;51.83;94273.44;5049902;28;20242;-80
2022/05/30 10:05:32;;;;;;;10.60;6.20;;;;;;;24.74;49.03;94269.09;5051058;28;20223;-80
2022/05/30 10:08:02;;;;;;;8.20;5.60;;;;;;;25.18;48.97;94269.78;5051572;28;20277;-79
2022/05/30 10:10:32;;;;;;;8.77;6.30;;;;;;;25.18;49.93;94265.00;5050735;28;20199;-75
2022/05/30 10:13:01;;;;;;;12.23;6.82;;;;;;;24.87;50.83;94266.47;5037162;28;20243;-76
2022/05/30 10:15:32;;;;;;;12.45;6.38;;;;;;;24.18;50.94;94259.91;5050875;28;20655;-78
2022/05/30 10:18:23;;;;;;;8.88;6.18;;;;;;;24.47;51.43;94263.69;5050163;28;20234;-79
2022/05/30 10:21:10;;;;;;;12.77;6.45;;;;;;;24.56;49.80;94265.91;5050713;28;20235;-80
2022/05/30 10:29:47;;;;;;;8.93;5.80;;;;;;;25.61;48.50;94269.59;5016997;28;20284;-81
2022/05/30 10:32:21;;;;;;;10.38;5.38;;;;;;;25.27;47.99;94270.00;5050910;28;20358;-79
2022/05/30 10:35:01;;;;;;;7.30;5.43;;;;;;;24.91;48.53;94261.63;5050518;28;20216;-79
2022/05/30 10:37:45;;;;;;;9.00;5.50;;;;;;;24.99;49.36;94257.53;5039478;28;20194;-81
2022/05/30 10:40:24;;;;;;;9.82;5.30;;;;;;;25.19;49.36;94261.03;5037470;28;20220;-75
2022/05/30 10:42:56;;;;;;;10.00;5.43;;;;;;;24.40;49.49;94270.16;5051001;28;20200;-79
2022/05/30 10:45:32;;;;;;;9.75;5.07;;;;;;;24.14;50.60;94270.25;5037925;28;20321;-80
2022/05/30 10:48:01;;;;;;;7.45;5.22;;;;;;;24.05;50.02;94268.78;5050104;28;20596;-80
2022/05/30 10:50:43;;;;;;;6.78;4.70;;;;;;;23.90;50.38;94261.97;5050573;28;20306;-75
2022/05/30 10:53:19;;;;;;;8.57;5.10;;;;;;;24.05;50.39;94274.31;5050593;28;20706;-79
2022/05/30 10:55:52;;;;;;;7.95;4.82;;;;;;;24.23;48.66;94273.25;5050643;28;20223;-79
2022/05/30 10:58:26;;;;;;;7.20;5.70;;;;;;;24.55;48.49;94267.91;5050825;28;20559;-80
2022/05/30 11:00:58;;;;;;;7.78;4.93;;;;;;;24.39;48.99;94265.03;5050572;28;20231;-75
2022/05/30 11:03:30;;;;;;;7.78;5.30;;;;;;;24.83;48.66;94265.75;5037971;28;20192;-75
2022/05/30 11:06:05;;;;;;;5.53;4.47;;;;;;;24.58;48.18;94267.06;5050497;28;20215;-78
2022/05/30 11:08:42;;;;;;;9.30;5.65;;;;;;;24.65;48.36;94266.91;5050500;28;20314;-78
2022/05/30 11:11:17;;;;;;;6.68;4.85;;;;;;;24.72;48.62;94266.00;5050423;28;20242;-78
2022/05/30 11:13:51;;;;;;;7.93;4.90;;;;;;;24.99;48.11;94257.53;5050192;28;20233;-78
2022/05/30 11:16:33;;;;;;;15.85;5.55;;;;;;;25.55;47.14;94254.69;5038805;28;20219;-79
2022/05/30 11:19:07;;;;;;;8.25;5.10;;;;;;;25.78;47.63;94257.31;5053957;28;20199;-80
2022/05/30 11:21:40;;;;;;;9.88;5.93;;;;;;;25.20;48.79;94257.06;5053909;28;20297;-76
2022/05/30 11:24:09;;;;;;;8.57;5.55;;;;;;;25.62;47.47;94260.06;5054175;28;20187;-79
2022/05/30 11:27:14;;;;;;;10.25;5.85;;;;;;;25.36;47.36;94259.84;5054302;28;20254;-79
2022/05/30 11:30:09;;;;;;;9.32;4.97;;;;;;;25.03;48.74;94263.75;5043828;28;20223;-78
2022/05/30 11:32:50;;;;;;;8.65;5.20;;;;;;;24.49;48.36;94269.59;5053853;28;20204;-73
2022/05/30 11:35:33;;;;;;;6.00;4.70;;;;;;;24.65;50.86;94261.34;5053638;28;20342;-79
2022/05/30 11:38:22;;;;;;;9.27;6.15;;;;;;;25.37;48.06;94263.41;5053992;28;20230;-79
2022/05/30 11:40:58;;;;;;;8.25;5.38;;;;;;;25.04;47.75;94259.78;5030796;28;20243;-75
2022/05/30 11:43:44;;;;;;;10.07;5.28;;;;;;;25.38;47.37;94260.22;5058582;28;20198;-79
2022/05/30 11:46:22;;;;;;;10.27;5.53;;;;;;;25.01;48.60;94249.56;5060957;28;20215;-79
2022/05/30 11:48:57;;;;;;;8.52;5.35;;;;;;;24.89;49.78;94258.50;5053744;28;20231;-76
2022/05/30 11:51:35;;;;;;;9.15;5.05;;;;;;;24.94;47.82;94252.47;5053310;28;20249;-79
2022/05/30 11:54:22;;;;;;;9.30;4.70;;;;;;;24.94;47.44;94260.81;5052784;28;20659;-77
2022/05/30 11:57:00;;;;;;;7.75;5.03;;;;;;;24.93;46.56;94243.38;5041211;28;20219;-77
2022/05/30 11:59:47;;;;;;;10.20;4.75;;;;;;;25.05;48.77;94244.72;5052675;28;20204;-75
2022/05/30 12:02:20;;;;;;;8.32;4.10;;;;;;;25.10;44.77;94247.00;5053252;28;20192;-75
2022/05/30 12:05:37;;;;;;;6.22;4.10;;;;;;;24.99;44.82;94257.53;5040578;28;20199;-77
2022/05/30 12:08:28;;;;;;;6.28;4.28;;;;;;;25.27;44.93;94250.56;4971630;28;20205;-76